createdAt,value
2023-05-09T00:00:14.839Z,12.90
2023-05-09T00:02:42.178Z,12.90
2023-05-09T00:05:09.955Z,13.00
2023-05-09T00:07:36.699Z,12.90
2023-05-09T00:10:04.021Z,13.00
2023-05-09T00:12:31.044Z,13.00
2023-05-09T00:14:57.993Z,13.00
2023-05-09T00:17:24.749Z,13.00
2023-05-09T00:19:52.975Z,13.00
2023-05-09T00:22:23.505Z,13.00
2023-05-09T00:24:50.749Z,13.00
2023-05-09T00:27:17.676Z,13.00
2023-05-09T00:29:44.545Z,13.00
2023-05-09T00:32:11.553Z,13.00
2023-05-09T00:34:38.272Z,12.90
2023-05-09T00:37:04.870Z,13.00
2023-05-09T00:39:31.488Z,12.90
2023-05-09T00:41:58.173Z,12.90
2023-05-09T00:44:24.891Z,12.90
2023-05-09T00:46:51.574Z,12.90
2023-05-09T00:49:18.283Z,12.80
2023-05-09T00:51:44.957Z,12.80
2023-05-09T00:54:12.073Z,12.80
2023-05-09T00:56:39.084Z,12.80
2023-05-09T00:59:06.485Z,12.80
2023-05-09T01:01:33.242Z,12.70
2023-05-09T01:04:00.131Z,12.70
2023-05-09T01:06:42.876Z,12.70
2023-05-09T01:09:30.258Z,12.70
2023-05-09T01:12:13.708Z,12.70
2023-05-09T01:14:53.762Z,12.60
2023-05-09T01:17:38.648Z,12.60
2023-05-09T01:20:28.660Z,12.60
2023-05-09T01:23:23.110Z,12.60
2023-05-09T01:26:14.298Z,12.50
2023-05-09T01:28:59.523Z,12.50
2023-05-09T01:31:28.426Z,12.50
2023-05-09T01:33:59.777Z,12.50
2023-05-09T01:36:29.986Z,12.40
2023-05-09T01:38:58.294Z,12.40
2023-05-09T01:41:26.859Z,12.40
2023-05-09T01:43:55.695Z,12.40
2023-05-09T01:46:23.791Z,12.40
2023-05-09T01:48:50.894Z,12.30
2023-05-09T01:51:18.769Z,12.30
2023-05-09T01:53:48.129Z,12.30
2023-05-09T01:56:15.972Z,12.30
2023-05-09T01:58:43.778Z,12.30
2023-05-09T02:01:11.280Z,12.30
2023-05-09T02:03:39.154Z,12.20
2023-05-09T02:06:07.126Z,12.10
2023-05-09T02:08:34.107Z,12.10
2023-05-09T02:11:00.890Z,12.10
2023-05-09T02:13:27.674Z,12.10
2023-05-09T02:15:55.283Z,12.10
2023-05-09T02:18:22.037Z,12.00
2023-05-09T02:20:48.743Z,12.00
2023-05-09T02:23:15.687Z,12.00
2023-05-09T02:25:42.865Z,12.00
2023-05-09T02:28:10.482Z,12.00
2023-05-09T02:30:41.912Z,11.90
2023-05-09T02:33:11.761Z,11.90
2023-05-09T02:35:41.517Z,11.90
2023-05-09T02:38:08.637Z,11.90
2023-05-09T02:40:36.221Z,11.80
2023-05-09T02:43:02.967Z,11.80
2023-05-09T02:45:29.970Z,11.80
2023-05-09T02:47:56.655Z,11.80
2023-05-09T02:50:23.487Z,11.80
2023-05-09T02:52:50.205Z,11.70
2023-05-09T02:55:17.183Z,11.70
2023-05-09T02:57:44.241Z,11.70
2023-05-09T03:00:11.625Z,11.70
2023-05-09T03:02:38.914Z,11.70
2023-05-09T03:05:06.139Z,11.70
2023-05-09T03:07:32.842Z,11.60
2023-05-09T03:09:59.548Z,11.60
2023-05-09T03:12:26.480Z,11.60
2023-05-09T03:14:53.106Z,11.60
2023-05-09T03:17:21.452Z,11.60
2023-05-09T03:19:48.626Z,11.60
2023-05-09T03:22:15.749Z,11.60
2023-05-09T03:24:42.420Z,11.60
2023-05-09T03:27:09.035Z,11.50
2023-05-09T03:29:35.644Z,11.50
2023-05-09T03:32:02.352Z,11.50
2023-05-09T03:34:28.987Z,11.50
2023-05-09T03:36:55.714Z,11.50
2023-05-09T03:39:22.396Z,11.50
2023-05-09T03:41:49.239Z,11.40
2023-05-09T03:44:15.956Z,11.40
2023-05-09T03:46:42.621Z,11.40
2023-05-09T03:49:09.265Z,11.50
2023-05-09T03:51:36.655Z,11.50
2023-05-09T03:54:03.296Z,11.40
2023-05-09T03:56:30.105Z,11.40
2023-05-09T03:58:56.767Z,11.40
2023-05-09T04:01:23.400Z,11.40
2023-05-09T04:03:52.052Z,11.50
2023-05-09T04:06:19.329Z,11.40
2023-05-09T04:08:46.029Z,11.40
2023-05-09T04:11:12.718Z,11.40
2023-05-09T04:13:39.405Z,11.40
2023-05-09T04:16:06.157Z,11.40
2023-05-09T04:18:32.952Z,11.50
2023-05-09T04:20:59.580Z,11.50
2023-05-09T04:23:26.266Z,11.50
2023-05-09T04:25:54.269Z,11.50
2023-05-09T04:28:21.415Z,11.50
2023-05-09T04:30:48.103Z,11.50
2023-05-09T04:33:14.768Z,11.60
2023-05-09T04:35:41.477Z,11.60
2023-05-09T04:38:08.250Z,11.70
2023-05-09T04:40:35.049Z,11.70
2023-05-09T04:43:01.818Z,11.70
2023-05-09T04:45:28.417Z,11.70
2023-05-09T04:47:55.073Z,11.80
2023-05-09T04:50:21.750Z,11.80
2023-05-09T04:52:48.382Z,11.90
2023-05-09T04:55:15.524Z,11.90
2023-05-09T04:57:42.308Z,11.90
2023-05-09T05:00:11.611Z,11.90
2023-05-09T05:02:38.964Z,12.00
2023-05-09T05:05:11.949Z,12.00
2023-05-09T05:07:39.039Z,12.00
2023-05-09T05:10:06.627Z,12.10
2023-05-09T05:12:33.667Z,12.10
2023-05-09T05:15:00.614Z,12.20
2023-05-09T05:17:29.431Z,12.20
2023-05-09T05:19:56.186Z,12.20
2023-05-09T05:22:23.122Z,12.30
2023-05-09T05:24:49.804Z,12.30
2023-05-09T05:27:16.409Z,12.30
2023-05-09T05:29:43.180Z,12.30
2023-05-09T05:32:10.869Z,12.40
2023-05-09T05:34:39.446Z,12.40
2023-05-09T05:37:06.171Z,12.50
2023-05-09T05:39:32.853Z,12.50
2023-05-09T05:41:59.518Z,12.50
2023-05-09T05:44:26.188Z,12.60
2023-05-09T05:46:52.843Z,12.60
2023-05-09T05:49:19.551Z,12.70
2023-05-09T05:51:46.174Z,12.70
2023-05-09T05:54:12.822Z,12.70
2023-05-09T05:56:39.440Z,12.70
2023-05-09T05:59:06.187Z,12.80
2023-05-09T06:01:32.787Z,12.80
2023-05-09T06:03:59.524Z,12.90
2023-05-09T06:06:29.657Z,12.90
2023-05-09T06:08:57.424Z,13.00
2023-05-09T06:11:24.210Z,13.00
2023-05-09T06:13:50.777Z,13.10
2023-05-09T06:16:20.049Z,13.10
2023-05-09T06:18:47.772Z,13.10
2023-05-09T06:21:14.398Z,13.30
2023-05-09T06:23:56.925Z,13.30
2023-05-09T06:26:27.671Z,13.30
2023-05-09T06:28:54.295Z,13.40
2023-05-09T06:31:21.330Z,13.40
2023-05-09T06:33:48.582Z,13.50
2023-05-09T06:36:15.330Z,13.60
2023-05-09T06:38:41.981Z,13.60
2023-05-09T06:41:08.978Z,13.70
2023-05-09T06:43:35.808Z,13.70
2023-05-09T06:46:02.959Z,13.80
2023-05-09T06:48:29.671Z,13.80
2023-05-09T06:50:56.369Z,13.80
2023-05-09T06:53:23.104Z,13.90
2023-05-09T06:55:49.816Z,14.00
2023-05-09T06:58:16.588Z,14.00
2023-05-09T07:00:43.282Z,14.10
2023-05-09T07:03:10.688Z,14.20
2023-05-09T07:05:37.524Z,14.30
2023-05-09T07:08:04.459Z,14.30
2023-05-09T07:10:31.462Z,14.40
2023-05-09T07:12:58.532Z,14.40
2023-05-09T07:15:37.129Z,14.50
2023-05-09T07:18:08.221Z,14.50
2023-05-09T07:20:34.984Z,14.60
2023-05-09T07:23:04.057Z,14.60
2023-05-09T07:25:30.912Z,14.70
2023-05-09T07:27:57.894Z,14.70
2023-05-09T07:30:25.181Z,14.80
2023-05-09T07:32:52.382Z,14.90
2023-05-09T07:35:20.015Z,14.90
2023-05-09T07:37:46.932Z,15.00
2023-05-09T07:40:14.217Z,15.10
2023-05-09T07:42:42.139Z,15.20
2023-05-09T07:45:10.415Z,15.30
2023-05-09T07:47:37.162Z,15.30
2023-05-09T07:50:04.128Z,15.40
2023-05-09T07:52:30.798Z,15.50
2023-05-09T07:54:57.536Z,15.50
2023-05-09T07:57:24.202Z,15.60
2023-05-09T07:59:50.863Z,15.70
2023-05-09T08:02:17.508Z,15.70
2023-05-09T08:04:44.318Z,15.70
2023-05-09T08:07:11.924Z,15.80
2023-05-09T08:09:38.667Z,15.80
2023-05-09T08:12:06.069Z,15.90
2023-05-09T08:14:32.906Z,16.00
2023-05-09T08:16:59.501Z,16.00
2023-05-09T08:19:26.472Z,16.10
2023-05-09T08:21:54.242Z,16.20
2023-05-09T08:24:24.278Z,16.30
2023-05-09T08:26:54.602Z,16.30
2023-05-09T08:29:24.209Z,16.40
2023-05-09T08:31:51.476Z,16.40
2023-05-09T08:34:18.205Z,16.60
2023-05-09T08:36:47.046Z,16.70
2023-05-09T08:39:13.788Z,16.80
2023-05-09T08:41:40.868Z,16.80
2023-05-09T08:44:09.864Z,16.90
2023-05-09T08:46:39.592Z,17.00
2023-05-09T08:49:07.440Z,17.10
2023-05-09T08:51:35.948Z,17.10
2023-05-09T08:54:03.561Z,17.20
2023-05-09T08:56:31.452Z,17.20
2023-05-09T08:58:59.101Z,17.30
2023-05-09T09:01:27.030Z,17.30
2023-05-09T09:03:54.157Z,17.40
2023-05-09T09:06:23.786Z,17.50
2023-05-09T09:08:53.543Z,17.60
2023-05-09T09:11:25.146Z,17.60
2023-05-09T09:13:53.992Z,17.70
2023-05-09T09:16:22.977Z,17.90
2023-05-09T09:18:52.822Z,18.00
2023-05-09T09:21:21.163Z,18.10
2023-05-09T09:23:49.762Z,18.30
2023-05-09T09:26:16.781Z,18.40
2023-05-09T09:28:43.663Z,18.50
2023-05-09T09:31:30.237Z,18.70
2023-05-09T09:34:03.559Z,18.80
2023-05-09T09:36:32.660Z,18.90
2023-05-09T09:39:01.663Z,19.10
2023-05-09T09:41:33.595Z,19.20
2023-05-09T09:44:07.721Z,19.30
2023-05-09T09:46:48.850Z,19.60
2023-05-09T09:49:17.160Z,19.70
2023-05-09T09:51:44.472Z,19.80
2023-05-09T09:54:15.419Z,19.80
2023-05-09T09:56:47.396Z,20.00
2023-05-09T09:59:16.730Z,20.10
2023-05-09T10:01:55.674Z,20.30
2023-05-09T10:04:22.844Z,20.50
2023-05-09T10:06:57.876Z,20.60
2023-05-09T10:09:25.827Z,20.90
2023-05-09T10:11:53.718Z,21.20
2023-05-09T10:14:25.426Z,21.20
2023-05-09T10:16:56.414Z,21.50
2023-05-09T10:19:26.635Z,21.70
2023-05-09T10:21:58.912Z,21.90
2023-05-09T10:24:47.022Z,22.10
2023-05-09T10:27:17.559Z,22.40
2023-05-09T10:30:07.395Z,22.70
2023-05-09T10:32:52.124Z,23.10
2023-05-09T10:35:22.675Z,23.40
2023-05-09T10:37:50.150Z,23.60
2023-05-09T10:40:20.029Z,23.70
2023-05-09T10:42:47.173Z,23.90
2023-05-09T10:45:14.752Z,24.10
2023-05-09T10:47:43.496Z,24.20
2023-05-09T10:50:13.703Z,24.40
2023-05-09T10:53:16.856Z,24.70
2023-05-09T10:55:54.300Z,24.90
2023-05-09T10:58:26.239Z,25.20
2023-05-09T11:00:57.125Z,25.30
2023-05-09T11:03:28.782Z,25.60
2023-05-09T11:05:57.596Z,25.70
2023-05-09T11:08:27.155Z,25.80
2023-05-09T11:10:55.572Z,25.90
2023-05-09T11:13:30.454Z,26.00
2023-05-09T11:16:04.106Z,26.00
2023-05-09T11:18:32.792Z,26.10
2023-05-09T11:21:06.940Z,26.30
2023-05-09T11:23:33.816Z,26.50
2023-05-09T11:26:08.583Z,26.50
2023-05-09T11:28:38.640Z,26.50
2023-05-09T11:31:16.636Z,26.60
2023-05-09T11:33:46.714Z,26.70
2023-05-09T11:36:35.580Z,26.80
2023-05-09T11:39:08.677Z,26.90
2023-05-09T11:41:47.375Z,27.00
2023-05-09T11:44:21.593Z,27.10
2023-05-09T11:46:49.287Z,27.30
2023-05-09T11:49:17.102Z,27.50
2023-05-09T11:51:43.904Z,27.60
2023-05-09T11:54:12.260Z,27.80
2023-05-09T11:56:40.737Z,27.90
2023-05-09T11:59:07.914Z,27.90
2023-05-09T12:01:36.548Z,27.90
2023-05-09T12:04:03.797Z,27.90
2023-05-09T12:06:30.609Z,28.00
2023-05-09T12:08:57.864Z,28.10
2023-05-09T12:11:25.594Z,28.20
2023-05-09T12:13:52.970Z,28.30
2023-05-09T12:16:21.335Z,28.40
2023-05-09T12:18:49.989Z,28.40
2023-05-09T12:21:20.614Z,28.50
2023-05-09T12:23:50.719Z,28.40
2023-05-09T12:26:18.458Z,28.40
2023-05-09T12:28:45.463Z,28.30
2023-05-09T12:31:13.004Z,28.30
2023-05-09T12:33:40.238Z,28.40
2023-05-09T12:36:11.014Z,28.50
2023-05-09T12:38:38.324Z,28.70
2023-05-09T12:41:10.716Z,28.70
2023-05-09T12:43:49.248Z,28.80
2023-05-09T12:46:20.183Z,28.90
2023-05-09T12:48:48.199Z,29.20
2023-05-09T12:51:20.370Z,29.30
2023-05-09T12:53:47.356Z,29.50
2023-05-09T12:56:16.557Z,29.70
2023-05-09T12:58:51.307Z,29.70
2023-05-09T13:01:19.257Z,29.80
2023-05-09T13:04:04.366Z,30.00
2023-05-09T13:06:31.462Z,30.00
2023-05-09T13:09:03.035Z,30.10
2023-05-09T13:11:30.143Z,30.10
2023-05-09T13:13:57.154Z,30.20
2023-05-09T13:16:23.976Z,30.20
2023-05-09T13:18:51.123Z,30.30
2023-05-09T13:21:17.871Z,30.40
2023-05-09T13:23:45.690Z,30.50
2023-05-09T13:26:12.888Z,30.70
2023-05-09T13:28:39.569Z,30.80
2023-05-09T13:31:07.021Z,31.00
2023-05-09T13:33:34.161Z,31.20
2023-05-09T13:36:00.962Z,31.30
2023-05-09T13:38:30.845Z,31.50
2023-05-09T13:40:58.260Z,31.50
2023-05-09T13:43:25.081Z,31.60
2023-05-09T13:45:51.835Z,31.60
2023-05-09T13:48:18.595Z,31.60
2023-05-09T13:50:45.920Z,31.80
2023-05-09T13:53:12.846Z,31.80
2023-05-09T13:55:39.548Z,31.80
2023-05-09T13:58:06.497Z,31.90
2023-05-09T14:00:33.825Z,31.90
2023-05-09T14:03:02.456Z,31.80
2023-05-09T14:05:32.461Z,31.80
2023-05-09T14:07:59.291Z,31.60
2023-05-09T14:10:27.248Z,31.50
2023-05-09T14:12:54.384Z,31.50
2023-05-09T14:15:21.330Z,31.60
2023-05-09T14:17:48.106Z,31.70
2023-05-09T14:20:16.271Z,31.60
2023-05-09T14:22:43.377Z,31.60
2023-05-09T14:25:10.166Z,31.70
2023-05-09T14:27:37.281Z,31.90
2023-05-09T14:30:04.828Z,32.00
2023-05-09T14:32:31.713Z,32.00
2023-05-09T14:34:58.681Z,31.90
2023-05-09T14:37:25.475Z,31.70
2023-05-09T14:39:52.241Z,31.50
2023-05-09T14:42:19.813Z,31.40
2023-05-09T14:44:47.405Z,31.30
2023-05-09T14:47:14.242Z,31.30
2023-05-09T14:49:41.630Z,31.20
2023-05-09T14:52:20.458Z,31.10
2023-05-09T14:54:47.065Z,31.00
2023-05-09T14:57:13.747Z,30.90
2023-05-09T14:59:40.425Z,30.80
2023-05-09T15:02:07.150Z,30.80
2023-05-09T15:04:34.107Z,30.80
2023-05-09T15:07:01.020Z,30.80
2023-05-09T15:09:28.129Z,30.70
2023-05-09T15:11:55.233Z,30.60
2023-05-09T15:14:22.052Z,30.50
2023-05-09T15:16:48.914Z,30.30
2023-05-09T15:19:15.680Z,30.20
2023-05-09T15:21:42.318Z,30.20
2023-05-09T15:24:09.079Z,30.20
2023-05-09T15:26:35.802Z,30.10
2023-05-09T15:29:02.579Z,30.10
2023-05-09T15:31:35.717Z,30.20
2023-05-09T15:34:02.684Z,30.20
2023-05-09T15:36:30.114Z,30.20
2023-05-09T15:38:57.111Z,30.20
2023-05-09T15:41:24.396Z,30.20
2023-05-09T15:43:51.759Z,30.20
2023-05-09T15:46:18.572Z,30.20
2023-05-09T15:48:45.437Z,30.10
2023-05-09T15:51:12.915Z,29.90
2023-05-09T15:53:39.821Z,29.80
2023-05-09T15:56:07.815Z,29.60
2023-05-09T15:58:35.192Z,29.40
2023-05-09T16:01:05.812Z,29.10
2023-05-09T16:03:32.895Z,28.90
2023-05-09T16:06:00.156Z,28.80
2023-05-09T16:08:27.462Z,28.50
2023-05-09T16:10:54.222Z,28.30
2023-05-09T16:13:20.945Z,28.20
2023-05-09T16:15:48.049Z,28.10
2023-05-09T16:18:14.758Z,28.00
2023-05-09T16:20:41.998Z,27.70
2023-05-09T16:23:08.585Z,27.50
2023-05-09T16:25:35.569Z,27.40
2023-05-09T16:28:02.812Z,27.30
2023-05-09T16:30:29.547Z,27.20
2023-05-09T16:32:56.439Z,27.10
2023-05-09T16:35:23.465Z,27.00
2023-05-09T16:37:50.121Z,26.90
2023-05-09T16:40:18.442Z,26.70
2023-05-09T16:42:45.141Z,26.60
2023-05-09T16:45:11.940Z,26.50
2023-05-09T16:47:38.652Z,26.30
2023-05-09T16:50:05.725Z,26.30
2023-05-09T16:52:32.367Z,26.20
2023-05-09T16:54:59.481Z,26.10
2023-05-09T16:57:26.574Z,26.00
2023-05-09T16:59:53.880Z,25.90
2023-05-09T17:02:20.576Z,25.80
2023-05-09T17:04:47.444Z,25.70
2023-05-09T17:07:15.480Z,25.60
2023-05-09T17:09:43.287Z,25.60
2023-05-09T17:12:16.403Z,25.40
2023-05-09T17:14:43.148Z,25.30
2023-05-09T17:17:09.841Z,25.20
2023-05-09T17:19:36.780Z,25.00
2023-05-09T17:22:05.910Z,25.00
2023-05-09T17:24:32.960Z,24.90
2023-05-09T17:27:00.200Z,24.80
2023-05-09T17:29:29.184Z,24.60
2023-05-09T17:32:02.085Z,24.60
2023-05-09T17:34:29.094Z,24.50
2023-05-09T17:36:56.282Z,24.30
2023-05-09T17:39:23.399Z,24.20
2023-05-09T17:41:50.671Z,24.00
2023-05-09T17:44:17.371Z,23.80
2023-05-09T17:46:44.288Z,23.70
2023-05-09T17:49:14.142Z,23.50
2023-05-09T17:51:49.623Z,23.30
2023-05-09T17:54:18.938Z,23.20
2023-05-09T17:56:46.460Z,23.00
2023-05-09T17:59:13.430Z,22.80
2023-05-09T18:01:40.199Z,22.70
2023-05-09T18:04:07.989Z,22.60
2023-05-09T18:06:34.667Z,22.40
2023-05-09T18:09:01.589Z,22.30
2023-05-09T18:11:28.481Z,22.20
2023-05-09T18:13:55.690Z,22.00
2023-05-09T18:16:22.424Z,21.90
2023-05-09T18:18:49.167Z,21.80
2023-05-09T18:21:15.923Z,21.70
2023-05-09T18:23:42.517Z,21.60
2023-05-09T18:26:09.209Z,21.50
2023-05-09T18:28:41.887Z,21.40
2023-05-09T18:31:09.603Z,21.30
2023-05-09T18:33:38.423Z,21.20
2023-05-09T18:36:10.308Z,21.10
2023-05-09T18:38:38.651Z,21.10
2023-05-09T18:41:10.418Z,21.00
2023-05-09T18:43:38.849Z,20.90
2023-05-09T18:46:05.757Z,20.80
2023-05-09T18:48:32.949Z,20.80
2023-05-09T18:50:59.565Z,20.70
2023-05-09T18:53:26.906Z,20.60
2023-05-09T18:55:53.648Z,20.50
2023-05-09T18:58:21.383Z,20.40
2023-05-09T19:00:48.185Z,20.30
2023-05-09T19:03:15.107Z,20.30
2023-05-09T19:05:42.913Z,20.20
2023-05-09T19:08:09.555Z,20.10
2023-05-09T19:10:36.286Z,20.10
2023-05-09T19:13:03.088Z,20.00
2023-05-09T19:15:30.246Z,19.90
2023-05-09T19:17:57.116Z,19.90
2023-05-09T19:20:23.956Z,19.80
2023-05-09T19:22:51.605Z,19.70
2023-05-09T19:25:18.882Z,19.70
2023-05-09T19:27:46.645Z,19.70
2023-05-09T19:30:15.487Z,19.50
2023-05-09T19:32:42.501Z,19.50
2023-05-09T19:35:09.938Z,19.50
2023-05-09T19:37:37.188Z,19.40
2023-05-09T19:40:06.310Z,19.40
2023-05-09T19:42:34.126Z,19.40
2023-05-09T19:45:01.469Z,19.30
2023-05-09T19:47:28.428Z,19.30
2023-05-09T19:49:55.247Z,19.30
2023-05-09T19:52:23.354Z,19.20
2023-05-09T19:54:50.780Z,19.20
2023-05-09T19:57:17.721Z,19.10
2023-05-09T19:59:44.345Z,19.10
2023-05-09T20:02:11.118Z,19.00
2023-05-09T20:04:37.739Z,19.00
2023-05-09T20:07:04.953Z,18.90
2023-05-09T20:09:33.108Z,18.90
2023-05-09T20:12:02.138Z,18.80
2023-05-09T20:14:28.866Z,18.80
2023-05-09T20:16:56.712Z,18.80
2023-05-09T20:19:23.578Z,18.70
2023-05-09T20:21:50.789Z,18.70
2023-05-09T20:24:17.760Z,18.70
2023-05-09T20:26:44.510Z,18.60
2023-05-09T20:29:11.360Z,18.60
2023-05-09T20:31:38.170Z,18.60
2023-05-09T20:34:04.928Z,18.50
2023-05-09T20:36:31.748Z,18.50
2023-05-09T20:38:58.482Z,18.50
2023-05-09T20:41:25.550Z,18.50
2023-05-09T20:43:52.367Z,18.40
2023-05-09T20:46:19.212Z,18.30
2023-05-09T20:48:45.969Z,18.30
2023-05-09T20:51:12.667Z,18.30
2023-05-09T20:53:39.437Z,18.20
2023-05-09T20:56:06.291Z,18.20
2023-05-09T20:58:34.170Z,18.10
2023-05-09T21:01:01.292Z,18.20
2023-05-09T21:03:28.228Z,18.10
2023-05-09T21:05:55.082Z,18.10
2023-05-09T21:08:23.366Z,18.10
2023-05-09T21:10:54.412Z,18.10
2023-05-09T21:13:21.523Z,18.00
2023-05-09T21:15:51.489Z,18.00
2023-05-09T21:18:19.390Z,18.00
2023-05-09T21:20:46.372Z,18.00
2023-05-09T21:23:13.207Z,17.90
2023-05-09T21:25:40.157Z,17.90
2023-05-09T21:28:07.188Z,17.90
2023-05-09T21:30:33.916Z,17.90
2023-05-09T21:33:01.574Z,17.80
2023-05-09T21:35:28.562Z,17.80
2023-05-09T21:37:55.387Z,17.80
2023-05-09T21:40:22.041Z,17.80
2023-05-09T21:42:49.087Z,17.80
2023-05-09T21:45:15.856Z,17.70
2023-05-09T21:47:42.761Z,17.70
2023-05-09T21:50:10.350Z,17.70
2023-05-09T21:52:37.113Z,17.70
2023-05-09T21:55:04.010Z,17.70
2023-05-09T21:57:30.853Z,17.70
2023-05-09T22:00:01.502Z,17.60
2023-05-09T22:02:29.154Z,17.60
2023-05-09T22:04:56.281Z,17.60
2023-05-09T22:07:23.058Z,17.60
2023-05-09T22:09:49.911Z,17.60
2023-05-09T22:12:16.648Z,17.60
2023-05-09T22:14:53.002Z,17.60
2023-05-09T22:17:22.954Z,17.50
2023-05-09T22:19:49.647Z,17.50
2023-05-09T22:22:16.501Z,17.50
2023-05-09T22:24:43.301Z,17.50
2023-05-09T22:27:10.696Z,17.40
2023-05-09T22:29:37.554Z,17.40
2023-05-09T22:32:04.755Z,17.30
2023-05-09T22:34:31.551Z,17.40
2023-05-09T22:36:58.187Z,17.40
2023-05-09T22:39:25.225Z,17.30
2023-05-09T22:41:52.035Z,17.30
2023-05-09T22:44:18.689Z,17.30
2023-05-09T22:46:45.345Z,17.30
2023-05-09T22:49:12.031Z,17.30
2023-05-09T22:51:38.747Z,17.20
2023-05-09T22:54:05.993Z,17.30
2023-05-09T22:56:33.333Z,17.20
2023-05-09T22:59:00.231Z,17.20
2023-05-09T23:01:27.657Z,17.20
2023-05-09T23:03:54.366Z,17.20
2023-05-09T23:06:21.018Z,17.10
2023-05-09T23:08:47.846Z,17.10
2023-05-09T23:11:14.609Z,17.10
2023-05-09T23:13:41.338Z,17.00
2023-05-09T23:16:08.155Z,17.00
2023-05-09T23:18:34.914Z,17.00
2023-05-09T23:21:01.750Z,16.90
2023-05-09T23:23:28.866Z,16.90
2023-05-09T23:25:55.605Z,16.90
2023-05-09T23:28:25.142Z,16.90
2023-05-09T23:30:53.481Z,16.80
2023-05-09T23:33:20.336Z,16.80
2023-05-09T23:35:47.885Z,16.80
2023-05-09T23:38:14.661Z,16.80
2023-05-09T23:40:45.164Z,16.70
2023-05-09T23:43:12.888Z,16.70
2023-05-09T23:45:40.044Z,16.70
2023-05-09T23:48:07.595Z,16.70
2023-05-09T23:50:34.533Z,16.70
2023-05-09T23:53:01.669Z,16.70
2023-05-09T23:55:28.422Z,16.60
2023-05-09T23:57:55.225Z,16.60
